Terminal Aerodrome Forecast
Issued by NWS Spokane, WA

Home | Current Version | Previous Version | Text Only | Print | Product List | Glossary On
Versions: 1 2 3 4 5 6 7 8 9 10 11 12 13 14 15
000
FTUS46 KOTX 282320
TAFGEG
TAF
KGEG 282320Z 2900/2924 20011KT P6SM SCT050 SCT100 BKN200
     FM290300 15005KT P6SM SCT050 BKN100 BKN150
     FM291500 19010KT P6SM FEW050 SCT150
     FM291900 22014G22KT P6SM VCSH SCT040 BKN060=

USA.gov is the U.S. government's official web portal to all federal, state and local government web resources and services.